Time;durP1;ratioP1;P1;durP2;ratioP2;P2;SDS_P1;SDS_P2;PMS_P1;PMS_P2;Temp;Humidity;BMP_temperature;BMP_pressure;BME280_temperature;BME280_humidity;BME280_pressure;Samples;Min_cycle;Max_cycle;Signal;HPM_P1;HPM_P2
2023/08/06 00:01:49;;;;;;;9.30;8.30;;;;;;;25.93;100.00;98452.91;5076406;28;20028;-68
2023/08/06 00:04:14;;;;;;;10.00;7.40;;;;;;;25.96;99.75;98457.75;5076041;28;20025;-66
2023/08/06 00:06:40;;;;;;;9.50;8.10;;;;;;;26.05;99.08;98458.75;5076469;28;20032;-65
2023/08/06 00:09:05;;;;;;;15.30;8.80;;;;;;;25.92;99.33;98456.72;5076394;28;20326;-68
2023/08/06 00:11:31;;;;;;;12.15;8.52;;;;;;;25.95;99.45;98456.16;5076626;28;20379;-65
2023/08/06 00:13:56;;;;;;;11.25;9.18;;;;;;;26.07;98.55;98460.06;5074941;28;20064;-68
2023/08/06 00:16:22;;;;;;;9.50;8.38;;;;;;;26.21;97.81;98451.97;5070795;28;20040;-68
2023/08/06 00:18:47;;;;;;;9.93;8.88;;;;;;;26.11;97.50;98454.03;5075007;28;20097;-66
2023/08/06 00:21:13;;;;;;;10.70;8.85;;;;;;;25.76;99.94;98445.28;5074862;28;20036;-67
2023/08/06 00:23:39;;;;;;;9.52;8.45;;;;;;;25.74;100.00;98433.94;5073483;28;20372;-65
2023/08/06 00:26:05;;;;;;;13.38;8.80;;;;;;;25.55;100.00;98435.81;5075638;28;20059;-66
2023/08/06 00:28:30;;;;;;;15.18;8.52;;;;;;;25.48;100.00;98435.34;5076104;28;20052;-65
2023/08/06 00:30:56;;;;;;;9.80;8.57;;;;;;;25.26;100.00;98427.78;5075082;28;20042;-67
2023/08/06 00:33:22;;;;;;;10.75;8.95;;;;;;;24.96;100.00;98428.88;5073754;28;20044;-66
2023/08/06 00:35:48;;;;;;;10.43;9.18;;;;;;;24.60;100.00;98426.53;5075120;28;20232;-67
2023/08/06 00:38:14;;;;;;;11.35;9.43;;;;;;;24.53;100.00;98426.06;5076608;28;20319;-65
2023/08/06 00:40:39;;;;;;;11.35;9.20;;;;;;;24.52;100.00;98425.25;5075181;28;20035;-65
2023/08/06 00:43:04;;;;;;;11.02;9.75;;;;;;;24.55;100.00;98423.88;5074161;28;20297;-67
2023/08/06 00:45:34;;;;;;;15.15;9.65;;;;;;;24.57;100.00;98426.28;5074314;28;20025;-66
2023/08/06 00:48:00;;;;;;;11.73;9.65;;;;;;;24.63;100.00;98431.38;5073958;28;20043;-65
2023/08/06 00:50:26;;;;;;;9.90;8.93;;;;;;;24.89;100.00;98429.22;5074098;28;20040;-66
2023/08/06 00:52:52;;;;;;;10.68;9.30;;;;;;;25.15;100.00;98424.38;5074253;28;20028;-67
2023/08/06 00:55:17;;;;;;;13.40;9.98;;;;;;;25.23;100.00;98417.50;5074915;28;20237;-68
2023/08/06 00:57:43;;;;;;;11.52;9.15;;;;;;;25.34;100.00;98419.81;5076224;28;20037;-65
2023/08/06 01:00:09;;;;;;;11.15;9.65;;;;;;;25.58;100.00;98413.53;5075740;28;20044;-66
2023/08/06 01:02:35;;;;;;;10.23;9.07;;;;;;;25.56;100.00;98411.13;5074464;28;20342;-66
2023/08/06 01:05:00;;;;;;;13.07;8.75;;;;;;;25.34;100.00;98402.75;5074626;28;20085;-66
2023/08/06 01:07:45;;;;;;;11.48;9.75;;;;;;;25.25;100.00;98391.75;5073535;28;20032;-66
2023/08/06 01:10:29;;;;;;;11.43;9.15;;;;;;;25.34;100.00;98394.63;5072334;28;20407;-68
2023/08/06 01:13:11;;;;;;;13.55;9.77;;;;;;;25.34;100.00;98400.84;5070573;28;20333;-66
2023/08/06 01:15:58;;;;;;;14.48;8.95;;;;;;;25.58;100.00;98392.66;5073843;28;20059;-66
2023/08/06 01:18:23;;;;;;;13.18;9.43;;;;;;;25.46;100.00;98381.44;5072717;28;20047;-66
2023/08/06 01:20:49;;;;;;;13.75;9.68;;;;;;;25.36;100.00;98393.22;5073703;28;20033;-65
2023/08/06 01:23:15;;;;;;;12.55;10.05;;;;;;;25.25;100.00;98393.66;5074146;28;20350;-65
2023/08/06 01:25:54;;;;;;;9.98;8.93;;;;;;;25.48;100.00;98400.94;5074292;28;20043;-66
2023/08/06 01:28:27;;;;;;;14.80;10.20;;;;;;;25.55;100.00;98409.50;5073801;28;20040;-66
2023/08/06 01:30:58;;;;;;;10.70;8.57;;;;;;;25.43;100.00;98417.25;5069598;28;20039;-67
2023/08/06 01:33:24;;;;;;;12.70;9.35;;;;;;;25.30;100.00;98421.47;5074263;28;20044;-66
2023/08/06 01:35:51;;;;;;;11.23;9.07;;;;;;;25.38;100.00;98420.84;5074661;28;20036;-68
2023/08/06 01:38:16;;;;;;;10.85;9.45;;;;;;;25.25;100.00;98410.72;5076123;28;20042;-68
2023/08/06 01:40:42;;;;;;;13.50;9.07;;;;;;;25.03;100.00;98386.06;5075856;28;20092;-68
2023/08/06 01:43:07;;;;;;;11.45;9.50;;;;;;;24.88;100.00;98386.97;5074182;28;20040;-66
2023/08/06 01:45:33;;;;;;;11.32;10.07;;;;;;;25.00;100.00;98395.56;5074834;28;20029;-66
2023/08/06 01:47:58;;;;;;;12.07;8.80;;;;;;;25.13;100.00;98380.53;5074409;28;20024;-68
2023/08/06 01:50:24;;;;;;;12.20;9.05;;;;;;;25.15;100.00;98370.19;5076172;28;20058;-68
2023/08/06 01:52:49;;;;;;;12.07;9.90;;;;;;;24.79;100.00;98346.19;5073704;28;20027;-66
2023/08/06 01:55:15;;;;;;;11.07;9.90;;;;;;;24.75;100.00;98366.00;5073813;28;20028;-67
2023/08/06 01:57:40;;;;;;;17.65;10.98;;;;;;;24.70;100.00;98380.41;5074716;28;20046;-66
2023/08/06 02:00:06;;;;;;;12.40;11.20;;;;;;;24.59;100.00;98372.69;5077255;28;20036;-68
2023/08/06 02:02:33;;;;;;;10.07;9.00;;;;;;;24.68;100.00;98369.06;5077853;28;20278;-67
2023/08/06 02:04:59;;;;;;;13.48;9.93;;;;;;;24.59;100.00;98372.69;5076502;28;20039;-66
2023/08/06 02:07:24;;;;;;;13.98;10.10;;;;;;;24.65;100.00;98371.53;5077076;28;20033;-67
2023/08/06 02:09:50;;;;;;;12.52;9.77;;;;;;;24.77;100.00;98385.47;5077454;28;20098;-66
2023/08/06 02:12:15;;;;;;;13.57;10.20;;;;;;;25.03;100.00;98392.28;5076474;28;20085;-68
2023/08/06 02:14:40;;;;;;;15.43;9.73;;;;;;;25.26;100.00;98406.91;5079470;28;20039;-67
2023/08/06 02:17:06;;;;;;;10.40;9.35;;;;;;;25.36;100.00;98404.06;5079725;28;20048;-66
2023/08/06 02:19:31;;;;;;;11.38;9.63;;;;;;;25.46;100.00;98393.09;5076988;28;20060;-66
2023/08/06 02:21:57;;;;;;;9.48;8.48;;;;;;;25.55;100.00;98392.44;5076121;28;20039;-68
2023/08/06 02:24:22;;;;;;;12.30;9.95;;;;;;;25.69;100.00;98396.06;5078709;28;20036;-66
2023/08/06 02:26:50;;;;;;;19.63;9.73;;;;;;;25.58;100.00;98389.13;5078522;28;20056;-67
2023/08/06 02:29:16;;;;;;;11.13;10.02;;;;;;;25.49;100.00;98391.69;5076615;28;20059;-67
2023/08/06 02:31:41;;;;;;;14.50;10.90;;;;;;;25.51;100.00;98389.50;5077923;28;20242;-66
2023/08/06 02:34:07;;;;;;;12.73;9.32;;;;;;;25.50;100.00;98382.47;5078749;28;20046;-67
2023/08/06 02:36:32;;;;;;;13.02;9.85;;;;;;;25.49;100.00;98380.06;5075984;28;20175;-67
2023/08/06 02:38:57;;;;;;;11.48;10.38;;;;;;;25.37;100.00;98380.47;5076594;28;20043;-65
2023/08/06 02:41:23;;;;;;;13.75;10.23;;;;;;;25.16;100.00;98389.97;5075540;28;20036;-65
2023/08/06 02:43:48;;;;;;;12.65;10.63;;;;;;;25.00;100.00;98383.94;5077292;28;20062;-66
2023/08/06 02:46:14;;;;;;;12.10;10.07;;;;;;;24.62;100.00;98378.34;5077239;28;20238;-66
2023/08/06 02:48:39;;;;;;;14.68;11.32;;;;;;;24.62;100.00;98370.22;5076484;28;20226;-67
2023/08/06 02:51:05;;;;;;;16.70;11.90;;;;;;;24.63;100.00;98373.72;5078927;28;20222;-66
2023/08/06 02:53:31;;;;;;;11.70;9.70;;;;;;;24.69;100.00;98378.78;5078197;28;20595;-67
2023/08/06 02:55:57;;;;;;;14.80;10.60;;;;;;;24.54;100.00;98378.16;5077277;28;20043;-66
2023/08/06 02:58:22;;;;;;;12.68;10.70;;;;;;;24.40;100.00;98375.31;5078435;28;20033;-66
2023/08/06 03:01:08;;;;;;;12.05;10.77;;;;;;;24.23;100.00;98369.47;5079266;28;20041;-66
2023/08/06 03:03:34;;;;;;;14.68;11.02;;;;;;;24.10;100.00;98360.13;5077435;28;20116;-66
2023/08/06 03:06:00;;;;;;;14.98;11.57;;;;;;;24.10;100.00;98352.81;5079245;28;20372;-67
2023/08/06 03:08:25;;;;;;;16.10;11.82;;;;;;;24.26;100.00;98358.91;5076506;28;20036;-65
2023/08/06 03:10:51;;;;;;;12.90;11.23;;;;;;;24.42;100.00;98356.88;5071085;28;20043;-67
2023/08/06 03:13:18;;;;;;;15.80;12.65;;;;;;;24.63;100.00;98352.88;5075636;28;20032;-67
2023/08/06 03:15:51;;;;;;;19.48;13.57;;;;;;;24.54;100.00;98362.72;5074872;28;20040;-66
2023/08/06 03:18:16;;;;;;;15.13;13.52;;;;;;;24.05;100.00;98363.69;5076207;28;20067;-65
2023/08/06 03:20:41;;;;;;;17.70;14.82;;;;;;;24.04;100.00;98366.66;5071676;28;20046;-66
2023/08/06 03:23:07;;;;;;;18.83;14.23;;;;;;;23.92;100.00;98361.59;5075868;28;20049;-66
2023/08/06 03:25:35;;;;;;;20.17;15.27;;;;;;;23.90;100.00;98363.78;5075956;28;20240;-65
2023/08/06 03:28:01;;;;;;;20.15;15.93;;;;;;;23.80;100.00;98361.94;5077444;28;20043;-67
2023/08/06 03:30:26;;;;;;;18.50;15.48;;;;;;;23.86;100.00;98368.13;5075848;28;20273;-65
2023/08/06 03:32:51;;;;;;;24.40;16.52;;;;;;;23.80;100.00;98367.34;5075942;28;20210;-67
2023/08/06 03:35:17;;;;;;;20.42;14.68;;;;;;;23.76;100.00;98362.81;5077249;28;20571;-66
2023/08/06 03:37:42;;;;;;;18.20;14.93;;;;;;;23.79;100.00;98367.63;5076665;28;20028;-67
2023/08/06 03:40:09;;;;;;;29.80;15.40;;;;;;;23.88;100.00;98377.56;5078018;28;20054;-67
2023/08/06 03:42:34;;;;;;;21.90;15.40;;;;;;;23.95;100.00;98390.81;5075333;28;20055;-67
2023/08/06 03:44:59;;;;;;;20.20;14.63;;;;;;;24.00;100.00;98392.66;5075545;28;20037;-65
2023/08/06 03:47:25;;;;;;;20.08;14.65;;;;;;;24.02;100.00;98379.66;5075581;28;20057;-65
2023/08/06 03:49:50;;;;;;;18.02;13.90;;;;;;;23.86;100.00;98379.75;5075408;28;20040;-65
2023/08/06 03:52:16;;;;;;;24.52;15.45;;;;;;;23.82;100.00;98375.19;5074388;28;20028;-65
2023/08/06 03:54:42;;;;;;;19.05;15.73;;;;;;;23.91;100.00;98373.50;5075039;28;20036;-67
2023/08/06 03:57:08;;;;;;;21.77;17.05;;;;;;;23.93;100.00;98376.75;5075154;28;20047;-66
2023/08/06 03:59:34;;;;;;;25.77;16.17;;;;;;;23.74;100.00;98381.19;5074833;28;20036;-67
2023/08/06 04:01:59;;;;;;;20.98;17.13;;;;;;;23.71;100.00;98374.44;5075481;28;20242;-67
2023/08/06 04:04:25;;;;;;;19.42;15.52;;;;;;;23.77;100.00;98376.03;5077029;28;20044;-66
2023/08/06 04:06:50;;;;;;;22.70;16.38;;;;;;;23.84;100.00;98376.53;5075396;28;20178;-63
2023/08/06 04:09:16;;;;;;;21.45;16.08;;;;;;;23.81;100.00;98385.19;5075050;28;20197;-64
2023/08/06 04:11:41;;;;;;;27.75;17.08;;;;;;;23.78;100.00;98393.06;5075211;28;20046;-63
2023/08/06 04:14:07;;;;;;;24.40;18.15;;;;;;;23.75;100.00;98385.50;5074236;28;20294;-63
2023/08/06 04:16:32;;;;;;;27.25;18.50;;;;;;;23.76;100.00;98389.81;5074915;28;20237;-64
2023/08/06 04:18:58;;;;;;;26.92;18.60;;;;;;;23.85;100.00;98385.44;5075344;28;20028;-65
2023/08/06 04:21:23;;;;;;;26.73;19.10;;;;;;;23.64;100.00;98378.56;5074721;28;20230;-62
2023/08/06 04:23:49;;;;;;;31.60;20.35;;;;;;;23.84;100.00;98397.34;5075527;28;20075;-66
2023/08/06 04:26:14;;;;;;;26.00;19.08;;;;;;;23.89;100.00;98392.69;5076354;28;20037;-67
2023/08/06 04:28:40;;;;;;;27.95;19.23;;;;;;;23.86;100.00;98389.75;5074426;28;20037;-65
2023/08/06 04:31:05;;;;;;;27.90;19.67;;;;;;;23.97;100.00;98394.03;5074094;28;20044;-65
2023/08/06 04:33:31;;;;;;;31.05;21.02;;;;;;;24.12;100.00;98393.09;5073462;28;20043;-65
2023/08/06 04:35:56;;;;;;;33.90;22.05;;;;;;;24.15;100.00;98400.66;5076586;28;20052;-65
2023/08/06 04:38:25;;;;;;;29.63;21.08;;;;;;;24.33;100.00;98389.16;5075085;28;20043;-66
2023/08/06 04:40:51;;;;;;;31.30;20.98;;;;;;;24.27;100.00;98390.31;5076830;28;20217;-67
2023/08/06 04:43:16;;;;;;;25.63;20.00;;;;;;;24.42;100.00;98400.19;5075572;28;20038;-67
2023/08/06 04:45:53;;;;;;;26.20;19.35;;;;;;;24.42;100.00;98405.59;5074926;28;20031;-65
2023/08/06 04:50:54;;;;;;;28.60;19.20;;;;;;;24.49;100.00;98381.72;5117708;22;20350;-69
2023/08/06 04:53:20;;;;;;;29.25;20.70;;;;;;;24.52;100.00;98406.31;5037582;28;20215;-69
2023/08/06 04:55:45;;;;;;;31.73;20.52;;;;;;;24.43;100.00;98407.19;5035912;28;20608;-69
2023/08/06 04:58:12;;;;;;;31.75;21.25;;;;;;;24.49;100.00;98403.34;5035501;28;20045;-68
2023/08/06 05:00:37;;;;;;;34.13;22.30;;;;;;;24.42;100.00;98390.16;5035627;28;20037;-69
2023/08/06 05:03:03;;;;;;;30.73;21.92;;;;;;;24.64;100.00;98386.97;5035580;28;20048;-69
2023/08/06 05:05:28;;;;;;;30.92;21.83;;;;;;;24.61;100.00;98409.19;5035010;28;20079;-68
2023/08/06 05:07:55;;;;;;;32.35;21.58;;;;;;;24.51;100.00;98418.22;5017947;28;20226;-69
2023/08/06 05:10:21;;;;;;;39.00;23.15;;;;;;;24.59;100.00;98407.88;5035232;28;20099;-69
2023/08/06 05:12:46;;;;;;;30.92;22.08;;;;;;;24.71;100.00;98398.25;5035309;28;20028;-66
2023/08/06 05:15:11;;;;;;;31.67;22.33;;;;;;;24.55;100.00;98391.38;5035374;28;20059;-68
2023/08/06 05:17:37;;;;;;;32.50;22.77;;;;;;;24.45;100.00;98391.50;5035557;28;20045;-68
2023/08/06 05:20:03;;;;;;;35.28;23.08;;;;;;;24.44;100.00;98379.84;5034698;28;20043;-69
2023/08/06 05:22:28;;;;;;;30.55;21.70;;;;;;;24.51;100.00;98377.63;5031358;28;20041;-68
2023/08/06 05:24:54;;;;;;;36.35;23.75;;;;;;;24.51;100.00;98385.75;5035735;28;20037;-68
2023/08/06 05:27:19;;;;;;;33.15;23.17;;;;;;;24.41;100.00;98385.84;5035649;28;20033;-69
2023/08/06 05:29:45;;;;;;;38.25;23.42;;;;;;;24.41;100.00;98387.75;5034654;28;20388;-68
2023/08/06 05:32:11;;;;;;;34.10;22.83;;;;;;;24.50;100.00;98402.25;5035032;28;20313;-69
2023/08/06 05:34:36;;;;;;;33.70;22.70;;;;;;;24.83;100.00;98409.50;5035766;28;20037;-69
2023/08/06 05:37:03;;;;;;;32.58;21.92;;;;;;;25.06;100.00;98407.94;5039528;28;20041;-69
2023/08/06 05:39:28;;;;;;;33.10;23.40;;;;;;;25.30;100.00;98393.59;5037789;28;20378;-68
2023/08/06 05:41:54;;;;;;;33.33;23.38;;;;;;;25.32;100.00;98380.56;5039114;28;20044;-69
2023/08/06 05:44:20;;;;;;;33.20;21.80;;;;;;;25.42;100.00;98386.63;5039134;28;20284;-69
2023/08/06 05:46:46;;;;;;;42.05;24.95;;;;;;;25.44;100.00;98375.50;5038817;28;20044;-69
2023/08/06 05:49:13;;;;;;;37.70;24.60;;;;;;;25.54;100.00;98369.13;5037775;28;20388;-69
2023/08/06 05:51:38;;;;;;;34.50;24.40;;;;;;;25.63;100.00;98364.66;5038844;28;20064;-69
2023/08/06 05:54:04;;;;;;;33.70;22.38;;;;;;;25.76;100.00;98374.81;5038886;28;20353;-69
2023/08/06 05:56:29;;;;;;;32.28;22.88;;;;;;;25.87;100.00;98378.97;5039747;28;20337;-69
2023/08/06 05:58:54;;;;;;;33.85;22.73;;;;;;;25.76;100.00;98386.47;5038805;28;20376;-69
2023/08/06 06:01:20;;;;;;;34.25;24.05;;;;;;;25.29;100.00;98387.34;5038503;28;20037;-69
2023/08/06 06:03:45;;;;;;;36.33;23.02;;;;;;;25.19;100.00;98386.69;5037833;28;20060;-69
2023/08/06 06:06:11;;;;;;;37.67;24.35;;;;;;;25.46;100.00;98389.56;5038156;28;20067;-69
2023/08/06 06:08:36;;;;;;;40.55;25.77;;;;;;;25.59;100.00;98385.31;5038118;28;20033;-69
2023/08/06 06:11:02;;;;;;;36.92;23.52;;;;;;;25.71;100.00;98389.25;5038272;28;20037;-69
2023/08/06 06:13:27;;;;;;;40.88;25.38;;;;;;;25.80;100.00;98375.81;5038110;28;20059;-69
2023/08/06 06:15:56;;;;;;;38.28;24.60;;;;;;;25.88;100.00;98377.88;5038232;28;20454;-69
2023/08/06 06:18:22;;;;;;;47.15;25.58;;;;;;;25.94;100.00;98378.59;5038815;28;20095;-68
2023/08/06 06:20:47;;;;;;;36.58;23.48;;;;;;;25.85;100.00;98373.03;5038459;28;20041;-69
2023/08/06 06:23:14;;;;;;;40.17;24.90;;;;;;;25.46;100.00;98386.88;5039021;28;20049;-68
2023/08/06 06:25:51;;;;;;;40.35;25.30;;;;;;;25.15;100.00;98394.59;5037895;28;20279;-69
2023/08/06 06:28:17;;;;;;;46.38;27.77;;;;;;;25.14;100.00;98399.19;5034595;28;20025;-68
2023/08/06 06:30:42;;;;;;;47.45;29.00;;;;;;;25.26;100.00;98387.13;5038387;28;20046;-69
2023/08/06 06:33:08;;;;;;;46.25;26.88;;;;;;;25.03;100.00;98386.06;5038130;28;20041;-69
2023/08/06 06:35:33;;;;;;;42.22;26.95;;;;;;;24.54;100.00;98380.84;5037651;28;20056;-69
2023/08/06 06:37:59;;;;;;;48.80;28.38;;;;;;;24.17;100.00;98368.72;5037589;28;20350;-69
2023/08/06 06:40:25;;;;;;;49.97;29.40;;;;;;;23.92;100.00;98379.72;5036997;28;20029;-68
2023/08/06 06:42:51;;;;;;;54.08;31.52;;;;;;;23.95;100.00;98377.28;5037522;28;20029;-69
2023/08/06 06:45:16;;;;;;;54.30;30.48;;;;;;;24.32;100.00;98365.91;5038068;28;20514;-68
2023/08/06 06:47:42;;;;;;;57.30;31.33;;;;;;;24.53;100.00;98361.09;5037327;28;20222;-66
2023/08/06 06:50:08;;;;;;;44.33;27.17;;;;;;;24.70;100.00;98358.75;5036699;28;20057;-68
2023/08/06 06:52:33;;;;;;;27.10;17.63;;;;;;;24.69;100.00;98342.81;5037875;28;20333;-69
2023/08/06 06:54:59;;;;;;;25.10;18.80;;;;;;;24.79;100.00;98351.63;5038325;28;20045;-69
2023/08/06 06:57:24;;;;;;;23.48;15.93;;;;;;;24.89;100.00;98342.56;5037273;28;20036;-69
2023/08/06 06:59:50;;;;;;;19.80;15.05;;;;;;;25.16;100.00;98341.22;5037826;28;20075;-69
2023/08/06 07:02:15;;;;;;;23.67;14.30;;;;;;;25.52;100.00;98355.06;5037011;28;20079;-69
2023/08/06 07:04:41;;;;;;;16.33;12.98;;;;;;;25.82;100.00;98370.13;5036773;28;20041;-69
2023/08/06 07:07:06;;;;;;;13.95;11.20;;;;;;;25.88;100.00;98383.28;5038556;28;20060;-69
2023/08/06 07:09:32;;;;;;;12.60;9.23;;;;;;;25.86;100.00;98399.06;5037847;28;20482;-69
2023/08/06 07:11:57;;;;;;;12.25;9.43;;;;;;;25.78;100.00;98399.72;5037578;28;20283;-69
2023/08/06 07:14:25;;;;;;;12.30;10.10;;;;;;;25.87;100.00;98405.28;5035998;28;20338;-69
2023/08/06 07:16:51;;;;;;;16.13;12.73;;;;;;;25.86;100.00;98420.75;5035162;28;20048;-69
2023/08/06 07:19:17;;;;;;;22.00;15.77;;;;;;;25.81;100.00;98423.53;5037413;28;20045;-69
2023/08/06 07:21:42;;;;;;;15.68;13.85;;;;;;;25.80;100.00;98429.25;5036342;28;20408;-69
2023/08/06 07:24:08;;;;;;;18.05;14.57;;;;;;;25.82;100.00;98422.44;5037402;28;20250;-69
2023/08/06 07:26:33;;;;;;;16.98;13.40;;;;;;;25.88;100.00;98429.41;5037244;28;20037;-69
2023/08/06 07:28:59;;;;;;;18.25;13.73;;;;;;;25.84;100.00;98420.25;5037932;28;20044;-69
2023/08/06 07:31:25;;;;;;;15.07;12.95;;;;;;;25.86;100.00;98420.75;5036685;28;20113;-69
2023/08/06 07:33:51;;;;;;;16.45;12.85;;;;;;;25.87;100.00;98414.22;5036347;28;20326;-69
2023/08/06 07:36:16;;;;;;;20.25;13.25;;;;;;;25.89;100.00;98419.34;5037807;28;20225;-69
2023/08/06 07:38:42;;;;;;;14.73;12.38;;;;;;;25.92;100.00;98419.56;5037222;28;20321;-69
2023/08/06 07:41:08;;;;;;;15.38;12.30;;;;;;;25.85;100.00;98421.03;5036928;28;20064;-69
2023/08/06 07:43:35;;;;;;;16.17;12.00;;;;;;;25.83;100.00;98421.34;5037615;28;20110;-69
2023/08/06 07:46:01;;;;;;;16.48;12.45;;;;;;;25.76;100.00;98416.28;5037541;28;20037;-69
2023/08/06 07:48:27;;;;;;;14.50;12.05;;;;;;;25.80;100.00;98419.22;5037303;28;20072;-69
2023/08/06 07:50:54;;;;;;;16.52;12.75;;;;;;;25.82;100.00;98414.31;5035528;28;20076;-69
2023/08/06 07:53:21;;;;;;;15.07;11.57;;;;;;;25.87;100.00;98408.00;5037010;28;20088;-69
2023/08/06 07:55:51;;;;;;;15.82;12.90;;;;;;;25.93;100.00;98398.69;5040521;28;20029;-69
2023/08/06 07:58:17;;;;;;;17.73;13.80;;;;;;;26.00;100.00;98402.63;5037932;28;20041;-69
2023/08/06 08:00:45;;;;;;;17.15;13.30;;;;;;;25.91;100.00;98401.69;5037013;28;20052;-69
2023/08/06 08:03:12;;;;;;;17.05;14.20;;;;;;;25.90;100.00;98402.78;5036111;28;20037;-69
2023/08/06 08:05:38;;;;;;;17.20;14.05;;;;;;;25.92;100.00;98424.19;5036583;28;20036;-69
2023/08/06 08:08:04;;;;;;;20.55;14.10;;;;;;;26.09;100.00;98432.63;5037406;28;20033;-69
2023/08/06 08:10:30;;;;;;;19.02;13.20;;;;;;;26.02;100.00;98421.34;5037176;28;20044;-69
2023/08/06 08:12:57;;;;;;;15.82;12.95;;;;;;;26.14;100.00;98432.56;5037305;28;20117;-69
2023/08/06 08:15:23;;;;;;;18.35;13.25;;;;;;;26.17;100.00;98431.16;5040966;28;20052;-69
2023/08/06 08:17:48;;;;;;;15.55;12.55;;;;;;;26.18;100.00;98436.28;5036847;28;20041;-69
2023/08/06 08:20:16;;;;;;;18.60;13.35;;;;;;;26.20;100.00;98442.22;5035843;28;20045;-69
2023/08/06 08:22:41;;;;;;;19.77;14.15;;;;;;;26.19;100.00;98440.63;5032819;28;20043;-69
2023/08/06 08:25:07;;;;;;;17.92;13.60;;;;;;;26.19;100.00;98431.66;5035658;28;20092;-69
2023/08/06 08:27:32;;;;;;;19.83;14.65;;;;;;;26.18;100.00;98436.28;5036307;28;20040;-69
2023/08/06 08:29:58;;;;;;;16.83;12.90;;;;;;;26.08;100.00;98448.09;5037147;28;20217;-69
2023/08/06 08:32:23;;;;;;;17.00;13.07;;;;;;;25.99;100.00;98444.41;5036833;28;20044;-69
2023/08/06 08:34:49;;;;;;;17.52;13.15;;;;;;;25.83;100.00;98429.47;5037225;28;20230;-69
2023/08/06 08:37:14;;;;;;;19.95;13.55;;;;;;;25.90;100.00;98415.53;5037202;28;20041;-68
2023/08/06 08:39:40;;;;;;;17.35;13.93;;;;;;;25.88;100.00;98409.59;5037869;28;20048;-69
2023/08/06 08:42:07;;;;;;;22.23;14.50;;;;;;;25.82;100.00;98408.06;5036948;28;20025;-68
2023/08/06 08:44:33;;;;;;;23.20;15.30;;;;;;;25.81;100.00;98407.25;5036914;28;20093;-69
2023/08/06 08:46:59;;;;;;;25.98;17.50;;;;;;;25.79;100.00;98398.63;5036923;28;20211;-69
2023/08/06 08:49:27;;;;;;;26.45;17.02;;;;;;;25.75;100.00;98397.59;5035365;28;20095;-68
2023/08/06 08:51:54;;;;;;;26.05;17.42;;;;;;;25.74;100.00;98401.41;5036137;28;20987;-69
2023/08/06 08:54:23;;;;;;;18.23;14.75;;;;;;;25.69;100.00;98413.13;5037128;28;20107;-69
2023/08/06 08:56:48;;;;;;;20.60;14.95;;;;;;;25.65;100.00;98414.81;5038035;28;20091;-69
2023/08/06 08:59:14;;;;;;;19.60;13.65;;;;;;;25.68;100.00;98425.06;5035759;28;20326;-69
2023/08/06 09:01:42;;;;;;;19.40;13.95;;;;;;;25.61;100.00;98419.19;5035983;28;20080;-69
2023/08/06 09:04:09;;;;;;;17.92;14.02;;;;;;;25.63;100.00;98410.75;5035789;28;20155;-69
2023/08/06 09:06:38;;;;;;;19.05;13.45;;;;;;;25.58;100.00;98406.22;5036010;28;20310;-69
2023/08/06 09:09:09;;;;;;;20.63;13.77;;;;;;;25.61;100.00;98407.53;5034772;28;20037;-69
2023/08/06 09:11:42;;;;;;;17.52;13.50;;;;;;;25.67;100.00;98403.69;5036217;28;20029;-69
2023/08/06 09:14:10;;;;;;;20.98;14.35;;;;;;;25.73;100.00;98394.38;5038095;28;20065;-69
2023/08/06 09:16:35;;;;;;;18.00;13.70;;;;;;;25.80;100.00;98386.69;5038393;28;20065;-69
2023/08/06 09:19:12;;;;;;;19.25;13.75;;;;;;;26.00;100.00;98399.91;5037825;28;20029;-69
2023/08/06 09:21:39;;;;;;;19.77;13.65;;;;;;;26.38;100.00;98408.03;5037954;28;20071;-69
2023/08/06 09:24:11;;;;;;;20.00;14.80;;;;;;;26.84;100.00;98412.66;5037783;28;20033;-69
2023/08/06 09:26:41;;;;;;;18.27;14.03;;;;;;;27.18;100.00;98401.44;5037200;28;20388;-66
2023/08/06 09:29:08;;;;;;;17.42;13.75;;;;;;;27.53;100.00;98395.25;5037149;28;20314;-66
2023/08/06 09:31:44;;;;;;;17.23;12.70;;;;;;;27.82;100.00;98392.19;5037840;28;20045;-67
2023/08/06 09:34:18;;;;;;;14.52;10.65;;;;;;;28.02;95.27;98399.06;5037874;28;20140;-66
2023/08/06 09:36:54;;;;;;;14.07;11.13;;;;;;;28.13;94.52;98392.28;5037770;28;20037;-66
2023/08/06 09:39:27;;;;;;;15.30;11.73;;;;;;;28.26;93.97;98394.16;5037821;28;20033;-66
2023/08/06 09:41:59;;;;;;;14.10;11.20;;;;;;;28.32;89.29;98391.31;5038246;28;20342;-67
2023/08/06 09:44:26;;;;;;;8.25;7.40;;;;;;;28.41;88.24;98392.97;5037408;28;20109;-66
2023/08/06 09:46:57;;;;;;;5.90;5.13;;;;;;;28.35;82.12;98379.81;5037719;28;20037;-67
2023/08/06 09:49:27;;;;;;;5.15;4.18;;;;;;;28.42;80.76;98375.53;5036858;28;20068;-66
2023/08/06 09:51:55;;;;;;;4.88;4.38;;;;;;;28.57;83.85;98368.88;5037197;28;20111;-67
2023/08/06 09:54:22;;;;;;;5.32;4.50;;;;;;;28.56;81.56;98365.34;5037562;28;20364;-66
2023/08/06 09:56:48;;;;;;;4.82;4.40;;;;;;;28.72;82.65;98375.84;5037308;28;20047;-66
2023/08/06 09:59:15;;;;;;;5.47;4.43;;;;;;;28.76;78.37;98366.72;5037632;28;20037;-66
2023/08/06 10:01:41;;;;;;;5.22;4.72;;;;;;;28.79;75.78;98365.28;5037326;28;20053;-66
2023/08/06 10:04:13;;;;;;;4.97;4.47;;;;;;;28.77;75.92;98362.06;5036635;28;20331;-67
2023/08/06 10:06:38;;;;;;;5.47;4.30;;;;;;;28.72;73.12;98348.59;5035561;28;20052;-66
2023/08/06 10:09:04;;;;;;;6.90;5.05;;;;;;;28.83;75.60;98361.66;5034523;28;20033;-66
2023/08/06 10:11:30;;;;;;;6.38;5.22;;;;;;;28.88;72.13;98353.34;5035337;28;20049;-66
2023/08/06 10:14:12;;;;;;;6.63;5.50;;;;;;;28.93;66.36;98350.47;5036482;28;20033;-66
2023/08/06 10:16:40;;;;;;;7.18;5.35;;;;;;;28.86;65.78;98344.66;5035839;28;20104;-66
2023/08/06 10:19:10;;;;;;;7.85;6.32;;;;;;;29.04;70.46;98333.81;5034995;28;20037;-66
2023/08/06 10:21:37;;;;;;;5.85;5.22;;;;;;;29.13;67.85;98329.19;5037246;28;20067;-66
2023/08/06 10:24:09;;;;;;;6.15;5.25;;;;;;;29.22;64.66;98319.13;5039053;28;20029;-66
2023/08/06 10:26:35;;;;;;;6.20;5.40;;;;;;;29.32;64.50;98315.28;5039608;28;20034;-66
2023/08/06 10:29:00;;;;;;;6.72;5.32;;;;;;;29.41;64.33;98307.94;5040130;28;20217;-66
2023/08/06 10:31:57;;;;;;;7.07;5.18;;;;;;;29.52;63.45;98304.59;5038593;28;20038;-66
2023/08/06 10:34:23;;;;;;;5.50;4.90;;;;;;;29.62;63.54;98316.28;5037624;28;20093;-66
2023/08/06 10:36:49;;;;;;;5.72;4.70;;;;;;;29.74;64.66;98309.06;5037849;28;20034;-66
2023/08/06 10:39:15;;;;;;;5.97;5.38;;;;;;;29.84;58.74;98314.19;5038385;28;20405;-67
2023/08/06 10:41:43;;;;;;;7.22;6.25;;;;;;;29.94;52.92;98306.78;5038176;28;20034;-66
2023/08/06 10:44:10;;;;;;;6.30;5.60;;;;;;;29.85;52.23;98309.53;5035156;28;20037;-66
2023/08/06 10:46:37;;;;;;;6.95;6.25;;;;;;;29.75;54.30;98318.06;5039068;28;20260;-66
2023/08/06 10:49:04;;;;;;;6.47;5.68;;;;;;;29.90;55.80;98319.47;5037971;28;20049;-66
2023/08/06 10:51:29;;;;;;;5.60;4.78;;;;;;;29.98;54.24;98300.38;5038330;28;20041;-67
2023/08/06 10:53:55;;;;;;;6.45;5.60;;;;;;;30.17;56.27;98314.50;5038290;28;20037;-67
2023/08/06 10:56:23;;;;;;;6.10;5.28;;;;;;;30.22;54.35;98315.47;5039375;28;20326;-67
2023/08/06 10:58:50;;;;;;;5.53;5.00;;;;;;;30.35;53.73;98326.19;5037047;28;20037;-66
2023/08/06 11:01:16;;;;;;;5.28;4.85;;;;;;;30.56;53.28;98339.13;5037756;28;20048;-66
2023/08/06 11:03:43;;;;;;;6.47;4.68;;;;;;;30.71;52.27;98338.63;5037977;28;20049;-67
2023/08/06 11:06:10;;;;;;;6.18;5.57;;;;;;;30.66;53.00;98336.88;5037184;28;20036;-66
2023/08/06 11:08:38;;;;;;;6.32;5.72;;;;;;;30.39;53.36;98334.53;5038124;28;20045;-66
2023/08/06 11:11:12;;;;;;;5.93;5.20;;;;;;;30.16;51.92;98339.38;5037090;28;20067;-66
2023/08/06 11:13:46;;;;;;;6.38;5.53;;;;;;;30.38;51.87;98333.72;5037729;28;20310;-66
2023/08/06 11:16:16;;;;;;;6.80;5.90;;;;;;;30.44;51.04;98339.81;5025615;28;20045;-66